createdAt,value
2022-09-14T00:01:24.083Z,94.158936
2022-09-14T00:02:14.680Z,94.158936
2022-09-14T00:03:24.380Z,94.061279
2022-09-14T00:04:32.054Z,94.158936
2022-09-14T00:05:40.874Z,94.262695
2022-09-14T00:06:50.648Z,94.360352
2022-09-14T00:07:59.377Z,94.464111
2022-09-14T00:09:09.165Z,94.561768
2022-09-14T00:10:18.832Z,94.262695
2022-09-14T00:11:28.553Z,93.859863
2022-09-14T00:12:38.511Z,93.859863
2022-09-14T00:13:46.248Z,93.902588
2022-09-14T00:14:55.001Z,93.798828
2022-09-14T00:16:04.733Z,93.902588
2022-09-14T00:17:14.534Z,93.798828
2022-09-14T00:18:23.284Z,93.701172
2022-09-14T00:19:32.057Z,93.701172
2022-09-14T00:20:40.801Z,93.701172
2022-09-14T00:21:50.603Z,93.597412
2022-09-14T00:22:59.420Z,93.597412
2022-09-14T00:24:08.182Z,93.701172
2022-09-14T00:25:17.974Z,93.701172
2022-09-14T00:26:26.801Z,93.701172
2022-09-14T00:27:35.614Z,93.902588
2022-09-14T00:28:45.436Z,94.000244
2022-09-14T00:29:54.378Z,94.104004
2022-09-14T00:31:04.049Z,94.104004
2022-09-14T00:32:16.768Z,94.20166
2022-09-14T00:33:26.430Z,94.20166
2022-09-14T00:34:36.190Z,94.30542
2022-09-14T00:35:44.981Z,94.403076
2022-09-14T00:36:53.712Z,94.403076
2022-09-14T00:38:03.510Z,94.30542
2022-09-14T00:39:13.220Z,94.000244
2022-09-14T00:40:23.046Z,94.104004
2022-09-14T00:41:32.832Z,94.30542
2022-09-14T00:42:42.594Z,94.30542
2022-09-14T00:43:51.375Z,94.30542
2022-09-14T00:45:00.168Z,94.20166
2022-09-14T00:46:09.938Z,94.30542
2022-09-14T00:47:18.666Z,94.30542
2022-09-14T00:48:27.407Z,94.403076
2022-09-14T00:49:37.198Z,94.403076
2022-09-14T00:50:45.898Z,94.20166
2022-09-14T00:51:55.630Z,94.20166
2022-09-14T00:53:03.387Z,94.30542
2022-09-14T00:54:11.122Z,94.506836
2022-09-14T00:55:20.882Z,94.506836
2022-09-14T00:56:29.620Z,94.506836
2022-09-14T00:57:39.383Z,94.403076
2022-09-14T00:58:49.231Z,94.604492
2022-09-14T00:59:58.067Z,94.708252
2022-09-14T01:01:07.932Z,94.708252
2022-09-14T01:02:16.646Z,94.763184
2022-09-14T01:03:24.309Z,94.805908
2022-09-14T01:04:34.125Z,94.909668
2022-09-14T01:05:43.861Z,94.708252
2022-09-14T01:06:52.652Z,94.708252
2022-09-14T01:08:01.403Z,94.604492
2022-09-14T01:09:10.158Z,94.604492
2022-09-14T01:10:20.064Z,94.506836
2022-09-14T01:11:28.855Z,94.506836
2022-09-14T01:12:36.559Z,94.708252
2022-09-14T01:13:46.300Z,94.909668
2022-09-14T01:14:55.039Z,95.007324
2022-09-14T01:16:03.886Z,94.909668
2022-09-14T01:17:13.560Z,95.007324
2022-09-14T01:18:23.566Z,95.111084
2022-09-14T01:19:33.302Z,95.3125
2022-09-14T01:20:42.002Z,95.410156
2022-09-14T01:21:50.726Z,95.513916
2022-09-14T01:23:00.459Z,95.715332
2022-09-14T01:24:10.226Z,95.715332
2022-09-14T01:25:18.941Z,95.611572
2022-09-14T01:26:27.664Z,95.611572
2022-09-14T01:27:36.565Z,95.410156
2022-09-14T01:28:46.295Z,95.20874
2022-09-14T01:29:55.076Z,95.20874
2022-09-14T01:31:03.799Z,95.20874
2022-09-14T01:32:13.516Z,95.3125
2022-09-14T01:33:23.271Z,95.3125
2022-09-14T01:34:32.003Z,95.410156
2022-09-14T01:35:40.722Z,95.410156
2022-09-14T01:36:50.488Z,95.611572
2022-09-14T01:38:00.396Z,95.611572
2022-09-14T01:39:09.125Z,95.611572
2022-09-14T01:40:16.908Z,95.715332
2022-09-14T01:41:26.524Z,95.513916
2022-09-14T01:42:35.276Z,95.556641
2022-09-14T01:43:45.029Z,95.556641
2022-09-14T01:44:54.878Z,95.758057
2022-09-14T01:46:04.756Z,95.861816
2022-09-14T01:47:14.401Z,95.861816
2022-09-14T01:48:23.126Z,95.861816
2022-09-14T01:49:37.585Z,95.861816
2022-09-14T01:50:47.294Z,95.861816
2022-09-14T01:51:55.981Z,96.063232
2022-09-14T01:53:05.716Z,96.063232
2022-09-14T01:54:14.392Z,95.959473
2022-09-14T01:55:23.076Z,95.959473
2022-09-14T01:56:32.974Z,96.063232
2022-09-14T01:57:40.669Z,96.160889
2022-09-14T01:58:48.434Z,96.160889
2022-09-14T01:59:57.143Z,96.160889
2022-09-14T02:01:05.895Z,96.063232
2022-09-14T02:02:14.597Z,96.160889
2022-09-14T02:03:23.230Z,96.264648
2022-09-14T02:04:31.943Z,96.160889
2022-09-14T02:05:41.728Z,96.063232
2022-09-14T02:06:50.396Z,96.063232
2022-09-14T02:07:59.139Z,96.008301
2022-09-14T02:09:08.835Z,95.959473
2022-09-14T02:10:18.561Z,95.861816
2022-09-14T02:11:27.258Z,95.758057
2022-09-14T02:12:35.950Z,95.703125
2022-09-14T02:13:44.803Z,95.501709
2022-09-14T02:14:54.515Z,95.605469
2022-09-14T02:16:03.282Z,95.605469
2022-09-14T02:17:11.991Z,95.806885
2022-09-14T02:18:28.537Z,95.605469
2022-09-14T02:19:37.277Z,95.501709
2022-09-14T02:20:46.012Z,95.605469
2022-09-14T02:21:55.747Z,95.404053
2022-09-14T02:23:04.470Z,95.300293
2022-09-14T02:24:14.206Z,95.300293
2022-09-14T02:25:22.973Z,95.300293
2022-09-14T02:26:30.717Z,95.404053
2022-09-14T02:27:40.435Z,95.300293
2022-09-14T02:28:50.377Z,95.202637
2022-09-14T02:29:59.184Z,95.098877
2022-09-14T02:31:08.007Z,95.300293
2022-09-14T02:32:17.642Z,95.257568
2022-09-14T02:33:27.433Z,95.257568
2022-09-14T02:34:36.193Z,95.257568
2022-09-14T02:35:45.936Z,95.355225
2022-09-14T02:36:55.735Z,95.355225
2022-09-14T02:38:04.410Z,95.257568
2022-09-14T02:39:14.119Z,95.355225
2022-09-14T02:40:22.927Z,95.355225
2022-09-14T02:41:31.560Z,95.458984
2022-09-14T02:42:40.278Z,95.458984
2022-09-14T02:43:49.028Z,95.355225
2022-09-14T02:44:58.721Z,95.355225
2022-09-14T02:46:07.398Z,95.257568
2022-09-14T02:47:15.067Z,95.257568
2022-09-14T02:48:24.961Z,95.153809
2022-09-14T02:49:34.694Z,95.056152
2022-09-14T02:50:43.403Z,95.153809
2022-09-14T02:51:52.074Z,95.153809
2022-09-14T02:53:01.881Z,94.952393
2022-09-14T02:54:11.502Z,94.750977
2022-09-14T02:55:20.252Z,94.750977
2022-09-14T02:56:29.937Z,94.65332
2022-09-14T02:57:39.672Z,94.65332
2022-09-14T02:58:49.438Z,94.750977
2022-09-14T02:59:58.164Z,94.854736
2022-09-14T03:01:06.947Z,94.65332
2022-09-14T03:02:15.582Z,94.65332
2022-09-14T03:03:25.251Z,94.549561
2022-09-14T03:04:33.941Z,94.549561
2022-09-14T03:05:41.675Z,94.451904
2022-09-14T03:06:51.367Z,94.451904
2022-09-14T03:08:00.095Z,94.549561
2022-09-14T03:09:08.808Z,94.451904
2022-09-14T03:10:18.455Z,94.549561
2022-09-14T03:11:28.199Z,94.549561
2022-09-14T03:12:37.869Z,94.549561
2022-09-14T03:13:47.558Z,94.750977
2022-09-14T03:14:56.249Z,94.750977
2022-09-14T03:16:06.017Z,94.854736
2022-09-14T03:17:15.777Z,94.854736
2022-09-14T03:18:24.495Z,95.056152
2022-09-14T03:19:33.177Z,95.153809
2022-09-14T03:20:41.847Z,94.854736
2022-09-14T03:21:51.550Z,94.750977
2022-09-14T03:23:00.335Z,94.952393
2022-09-14T03:24:08.989Z,94.952393
2022-09-14T03:25:18.736Z,95.056152
2022-09-14T03:26:27.489Z,95.153809
2022-09-14T03:27:37.332Z,95.404053
2022-09-14T03:28:46.050Z,95.501709
2022-09-14T03:29:54.787Z,95.703125
2022-09-14T03:31:04.527Z,95.758057
2022-09-14T03:32:12.179Z,95.758057
2022-09-14T03:33:20.910Z,95.758057
2022-09-14T03:34:30.670Z,95.6604
2022-09-14T03:35:39.364Z,95.703125
2022-09-14T03:36:48.040Z,95.703125
2022-09-14T03:37:56.746Z,95.703125
2022-09-14T03:39:05.443Z,95.806885
2022-09-14T03:40:19.416Z,96.008301
2022-09-14T03:41:25.819Z,96.105957
2022-09-14T03:42:35.552Z,96.105957
2022-09-14T03:43:45.277Z,95.806885
2022-09-14T03:44:54.955Z,95.703125
2022-09-14T03:46:03.853Z,95.6604
2022-09-14T03:47:12.562Z,95.556641
2022-09-14T03:48:22.241Z,95.458984
2022-09-14T03:49:31.951Z,95.458984
2022-09-14T03:50:41.709Z,95.355225
2022-09-14T03:51:49.516Z,95.257568
2022-09-14T03:53:00.203Z,95.153809
2022-09-14T03:54:08.898Z,95.153809
2022-09-14T03:55:17.617Z,95.056152
2022-09-14T03:56:26.340Z,95.056152
2022-09-14T03:57:35.072Z,95.056152
2022-09-14T03:58:44.792Z,95.056152
2022-09-14T03:59:53.489Z,95.153809
2022-09-14T04:01:03.187Z,95.257568
2022-09-14T04:02:13.055Z,95.257568
2022-09-14T04:03:22.775Z,95.257568
2022-09-14T04:04:31.504Z,95.355225
2022-09-14T04:05:39.259Z,95.153809
2022-09-14T04:06:48.967Z,94.952393
2022-09-14T04:07:58.679Z,94.854736
2022-09-14T04:09:07.455Z,94.854736
2022-09-14T04:10:16.181Z,94.750977
2022-09-14T04:11:25.890Z,94.506836
2022-09-14T04:12:34.654Z,94.708252
2022-09-14T04:13:43.386Z,94.604492
2022-09-14T04:14:53.185Z,94.000244
2022-09-14T04:16:01.992Z,93.701172
2022-09-14T04:17:11.717Z,93.597412
2022-09-14T04:18:20.420Z,93.499756
2022-09-14T04:19:29.196Z,93.255615
2022-09-14T04:20:38.954Z,93.054199
2022-09-14T04:21:47.682Z,92.749023
2022-09-14T04:22:57.380Z,92.749023
2022-09-14T04:24:22.495Z,92.749023
2022-09-14T04:25:15.760Z,92.651367
2022-09-14T04:26:25.514Z,92.651367
2022-09-14T04:27:35.304Z,92.547607
2022-09-14T04:28:45.112Z,92.651367
2022-09-14T04:29:55.854Z,92.602539
2022-09-14T04:31:04.626Z,93.609619
2022-09-14T04:32:14.407Z,93.811035
2022-09-14T04:33:24.249Z,94.012451
2022-09-14T04:34:33.947Z,94.818115
2022-09-14T04:35:43.710Z,95.166016
2022-09-14T04:36:52.484Z,94.561768
2022-09-14T04:38:02.227Z,95.471191
2022-09-14T04:39:10.978Z,95.874023
2022-09-14T04:40:19.780Z,95.97168
2022-09-14T04:41:29.466Z,96.374512
2022-09-14T04:42:39.313Z,96.374512
2022-09-14T04:43:48.317Z,96.014404
2022-09-14T04:44:58.012Z,96.21582
2022-09-14T04:46:07.814Z,96.31958
2022-09-14T04:47:17.487Z,96.722412
2022-09-14T04:48:26.159Z,96.826172
2022-09-14T04:49:33.908Z,96.826172
2022-09-14T04:50:43.611Z,97.027588
2022-09-14T04:51:52.303Z,96.923828
2022-09-14T04:53:01.015Z,97.229004
2022-09-14T04:54:09.684Z,97.32666
2022-09-14T04:55:18.395Z,97.32666
2022-09-14T04:56:28.119Z,96.722412
2022-09-14T04:57:37.783Z,96.618652
2022-09-14T04:58:51.336Z,96.417236
2022-09-14T04:59:57.275Z,96.520996
2022-09-14T05:01:06.986Z,96.722412
2022-09-14T05:02:16.951Z,96.417236
2022-09-14T05:03:26.489Z,96.618652
2022-09-14T05:04:36.194Z,96.417236
2022-09-14T05:05:45.898Z,96.618652
2022-09-14T05:06:54.723Z,96.31958
2022-09-14T05:08:04.479Z,96.118164
2022-09-14T05:09:14.195Z,95.916748
2022-09-14T05:10:22.870Z,95.812988
2022-09-14T05:11:31.572Z,95.367432
2022-09-14T05:12:41.305Z,95.471191
2022-09-14T05:13:51.006Z,94.9646
2022-09-14T05:15:00.898Z,94.866943
2022-09-14T05:16:09.619Z,94.464111
2022-09-14T05:17:18.364Z,94.561768
2022-09-14T05:18:28.071Z,94.464111
2022-09-14T05:19:37.953Z,93.95752
2022-09-14T05:20:46.647Z,94.116211
2022-09-14T05:21:55.412Z,93.609619
2022-09-14T05:23:04.119Z,93.408203
2022-09-14T05:24:13.925Z,93.811035
2022-09-14T05:25:21.587Z,93.811035
2022-09-14T05:26:30.300Z,93.914795
2022-09-14T05:27:39.977Z,93.408203
2022-09-14T05:28:49.646Z,93.408203
2022-09-14T05:29:59.374Z,93.310547
2022-09-14T05:31:09.143Z,93.713379
2022-09-14T05:32:17.857Z,93.811035
2022-09-14T05:33:27.567Z,93.811035
2022-09-14T05:34:35.286Z,93.206787
2022-09-14T05:35:45.048Z,92.962646
2022-09-14T05:36:54.772Z,92.663574
2022-09-14T05:38:03.469Z,92.315674
2022-09-14T05:39:12.157Z,92.016602
2022-09-14T05:40:21.899Z,91.815186
2022-09-14T05:41:31.662Z,91.711426
2022-09-14T05:42:41.352Z,91.766357
2022-09-14T05:43:51.138Z,91.369629
2022-09-14T05:44:58.847Z,91.265869
2022-09-14T05:46:08.647Z,91.467285
2022-09-14T05:47:17.385Z,91.571045
2022-09-14T05:48:25.941Z,90.820312
2022-09-14T05:49:34.667Z,91.021729
2022-09-14T05:50:44.425Z,90.820312
2022-09-14T05:51:54.137Z,90.924072
2022-09-14T05:53:02.824Z,90.820312
2022-09-14T05:54:10.507Z,90.41748
2022-09-14T05:55:20.196Z,90.52124
2022-09-14T05:56:29.965Z,90.618896
2022-09-14T05:57:38.851Z,90.52124
2022-09-14T05:58:47.592Z,90.374756
2022-09-14T05:59:57.327Z,90.2771
2022-09-14T06:01:13.026Z,90.2771
2022-09-14T06:02:22.871Z,90.374756
2022-09-14T06:03:31.386Z,89.978027
2022-09-14T06:04:41.114Z,89.776611
2022-09-14T06:05:48.838Z,89.776611
2022-09-14T06:07:17.251Z,89.776611
2022-09-14T06:08:09.181Z,89.532471
2022-09-14T06:09:16.864Z,89.630127
2022-09-14T06:10:24.649Z,89.331055
2022-09-14T06:11:34.414Z,89.428711
2022-09-14T06:12:43.111Z,89.129639
2022-09-14T06:13:51.987Z,89.331055
2022-09-14T06:15:00.495Z,89.227295
2022-09-14T06:16:10.202Z,89.428711
2022-09-14T06:17:19.912Z,89.227295
2022-09-14T06:18:27.602Z,89.428711
2022-09-14T06:19:35.257Z,89.227295
2022-09-14T06:20:44.943Z,89.331055
2022-09-14T06:21:53.660Z,89.428711
2022-09-14T06:23:03.345Z,89.831543
2022-09-14T06:24:12.050Z,89.532471
2022-09-14T06:25:20.721Z,89.831543
2022-09-14T06:26:30.448Z,89.428711
2022-09-14T06:27:38.256Z,89.428711
2022-09-14T06:28:45.932Z,89.630127
2022-09-14T06:29:55.647Z,90.332031
2022-09-14T06:31:04.329Z,90.332031
2022-09-14T06:32:13.125Z,90.734863
2022-09-14T06:33:21.829Z,91.033936
2022-09-14T06:34:30.584Z,90.332031
2022-09-14T06:35:40.251Z,90.734863
2022-09-14T06:36:49.931Z,91.137695
2022-09-14T06:37:59.629Z,90.838623
2022-09-14T06:39:07.387Z,90.533447
2022-09-14T06:40:17.315Z,90.332031
2022-09-14T06:41:26.842Z,89.691162
2022-09-14T06:42:35.505Z,89.489746
2022-09-14T06:43:44.368Z,89.245605
2022-09-14T06:44:53.059Z,89.849854
2022-09-14T06:46:01.786Z,89.746094
2022-09-14T06:47:11.469Z,89.544678
2022-09-14T06:48:19.188Z,89.544678
2022-09-14T06:49:26.853Z,90.148926
2022-09-14T06:50:36.681Z,89.648438
2022-09-14T06:51:45.249Z,89.245605
2022-09-14T06:52:52.957Z,88.946533
2022-09-14T06:54:01.656Z,89.245605
2022-09-14T06:55:10.383Z,89.544678
2022-09-14T06:56:20.114Z,89.141846
2022-09-14T06:57:28.854Z,89.94751
2022-09-14T06:58:36.549Z,90.045166
2022-09-14T06:59:46.248Z,90.85083
2022-09-14T07:00:55.914Z,90.246582
2022-09-14T07:02:05.650Z,91.552734
2022-09-14T07:03:14.471Z,92.150879
2022-09-14T07:04:23.097Z,92.700195
2022-09-14T07:05:32.790Z,93.200684
2022-09-14T07:06:41.521Z,93.4021
2022-09-14T07:07:50.242Z,94.146729
2022-09-14T07:08:59.962Z,93.847656
2022-09-14T07:10:08.677Z,94.451904
2022-09-14T07:11:18.399Z,94.750977
2022-09-14T07:12:28.166Z,94.647217
2022-09-14T07:13:36.947Z,94.451904
2022-09-14T07:14:46.720Z,94.049072
2022-09-14T07:15:55.475Z,93.548584
2022-09-14T07:17:03.234Z,93.4021
2022-09-14T07:18:12.943Z,93.103027
2022-09-14T07:19:21.695Z,93.29834
2022-09-14T07:20:30.443Z,93.103027
2022-09-14T07:21:39.118Z,93.200684
2022-09-14T07:22:47.811Z,93.200684
2022-09-14T07:23:57.539Z,93.804932
2022-09-14T07:25:05.256Z,93.103027
2022-09-14T07:26:13.938Z,93.499756
2022-09-14T07:27:22.625Z,93.29834
2022-09-14T07:28:33.034Z,92.999268
2022-09-14T07:29:41.007Z,92.797852
2022-09-14T07:30:49.885Z,92.755127
2022-09-14T07:31:58.627Z,92.657471
2022-09-14T07:33:08.328Z,92.553711
2022-09-14T07:34:17.036Z,92.755127
2022-09-14T07:35:25.721Z,92.456055
2022-09-14T07:36:35.463Z,92.254639
2022-09-14T07:37:44.107Z,91.650391
2022-09-14T07:38:53.884Z,91.448975
2022-09-14T07:40:03.513Z,91.51001
2022-09-14T07:41:12.158Z,91.308594
2022-09-14T07:42:21.914Z,91.204834
2022-09-14T07:43:30.606Z,91.009521
2022-09-14T07:44:39.295Z,90.50293
2022-09-14T07:45:49.054Z,90.405273
2022-09-14T07:46:57.725Z,90.460205
2022-09-14T07:48:07.428Z,90.063477
2022-09-14T07:49:15.139Z,89.862061
2022-09-14T07:50:23.856Z,89.959717
2022-09-14T07:51:33.541Z,89.562988
2022-09-14T07:52:41.212Z,89.72168
2022-09-14T07:53:50.003Z,89.019775
2022-09-14T07:54:59.745Z,88.7146
2022-09-14T07:56:08.316Z,88.214111
2022-09-14T07:57:18.046Z,88.018799
2022-09-14T07:58:27.727Z,87.677002
2022-09-14T07:59:37.702Z,86.975098
2022-09-14T08:00:47.149Z,86.730957
2022-09-14T08:01:54.976Z,86.730957
2022-09-14T08:03:02.506Z,85.72998
2022-09-14T08:04:12.225Z,85.491943
2022-09-14T08:05:22.035Z,84.893799
2022-09-14T08:06:29.722Z,85.05249
2022-09-14T08:07:38.408Z,84.649658
2022-09-14T08:08:48.114Z,83.813477
2022-09-14T08:09:57.837Z,83.911133
2022-09-14T08:11:06.579Z,83.569336
2022-09-14T08:12:14.249Z,82.971191
2022-09-14T08:13:23.982Z,82.93457
2022-09-14T08:14:33.654Z,82.232666
2022-09-14T08:15:43.351Z,81.835938
2022-09-14T08:16:52.194Z,81.433105
2022-09-14T08:18:00.787Z,80.999756
2022-09-14T08:19:09.469Z,81.298828
2022-09-14T08:20:17.197Z,79.998779
2022-09-14T08:21:24.883Z,79.663086
2022-09-14T08:22:34.647Z,78.967285
2022-09-14T08:23:43.366Z,79.266357
2022-09-14T08:24:52.053Z,79.02832
2022-09-14T08:26:00.751Z,78.729248
2022-09-14T08:27:09.487Z,78.393555
2022-09-14T08:28:20.168Z,77.79541
2022-09-14T08:29:28.857Z,78.289795
2022-09-14T08:30:37.542Z,77.294922
2022-09-14T08:31:47.371Z,76.501465
2022-09-14T08:32:58.928Z,77.197266
2022-09-14T08:34:06.775Z,77.093506
2022-09-14T08:35:15.458Z,77.496338
2022-09-14T08:36:25.126Z,77.392578
2022-09-14T08:37:34.811Z,76.501465
2022-09-14T08:38:43.481Z,76.098633
2022-09-14T08:39:53.235Z,76.397705
2022-09-14T08:41:00.910Z,76.361084
2022-09-14T08:42:09.639Z,76.5625
2022-09-14T08:43:19.507Z,75.927734
2022-09-14T08:44:28.108Z,75.32959
2022-09-14T08:45:36.851Z,74.633789
2022-09-14T08:46:45.475Z,74.89624
2022-09-14T08:47:54.239Z,73.901367
2022-09-14T08:49:03.936Z,72.674561
2022-09-14T08:50:12.631Z,72.674561
2022-09-14T08:51:21.317Z,73.431396
2022-09-14T08:52:30.996Z,72.338867
2022-09-14T08:53:40.755Z,72.20459
2022-09-14T08:54:50.475Z,70.617676
2022-09-14T08:55:59.182Z,70.617676
2022-09-14T08:57:08.898Z,70.617676
2022-09-14T08:58:18.580Z,71.276855
2022-09-14T08:59:28.366Z,69.891357
2022-09-14T09:00:36.046Z,69.891357
2022-09-14T09:01:45.711Z,70.880127
2022-09-14T09:02:54.449Z,69.592285
2022-09-14T09:04:04.201Z,70.581055
2022-09-14T09:05:12.823Z,70.349121
2022-09-14T09:06:21.514Z,69.952393
2022-09-14T09:07:31.211Z,70.349121
2022-09-14T09:08:39.033Z,69.622803
2022-09-14T09:09:47.880Z,69.921875
2022-09-14T09:10:57.582Z,68.695068
2022-09-14T09:12:07.278Z,68.896484
2022-09-14T09:13:15.957Z,68.664551
2022-09-14T09:14:24.655Z,67.706299
2022-09-14T09:15:34.396Z,68.237305
2022-09-14T09:16:44.076Z,68.237305
2022-09-14T09:17:51.741Z,68.829346
2022-09-14T09:19:00.451Z,69.226074
2022-09-14T09:20:10.166Z,69.030762
2022-09-14T09:21:19.828Z,68.634033
2022-09-14T09:22:29.521Z,68.634033
2022-09-14T09:23:40.199Z,69.030762
2022-09-14T09:24:47.865Z,69.525146
2022-09-14T09:25:57.554Z,68.798828
2022-09-14T09:27:06.260Z,68.798828
2022-09-14T09:28:15.950Z,68.566895
2022-09-14T09:29:25.661Z,67.96875
2022-09-14T09:30:35.362Z,69.226074
2022-09-14T09:31:44.161Z,67.63916
2022-09-14T09:32:53.784Z,67.608643
2022-09-14T09:34:02.500Z,67.016602
2022-09-14T09:35:12.201Z,66.815186
2022-09-14T09:36:19.896Z,67.773438
2022-09-14T09:37:28.672Z,66.912842
2022-09-14T09:38:38.373Z,66.320801
2022-09-14T09:39:47.105Z,66.949463
2022-09-14T09:40:56.774Z,67.407227
2022-09-14T09:42:05.456Z,67.144775
2022-09-14T09:43:24.395Z,66.748047
2022-09-14T09:44:25.890Z,67.474365
2022-09-14T09:45:33.570Z,67.175293
2022-09-14T09:46:42.323Z,68.133545
2022-09-14T09:47:52.032Z,66.748047
2022-09-14T09:49:01.686Z,67.840576
2022-09-14T09:50:10.355Z,67.175293
2022-09-14T09:51:23.610Z,66.680908
2022-09-14T09:52:27.702Z,67.407227
2022-09-14T09:53:38.378Z,67.803955
2022-09-14T09:54:47.082Z,67.938232
2022-09-14T09:55:55.770Z,68.829346
2022-09-14T09:57:05.477Z,69.32373
2022-09-14T09:58:14.163Z,69.525146
2022-09-14T09:59:22.845Z,69.458008
2022-09-14T10:00:31.658Z,69.854736
2022-09-14T10:01:40.528Z,69.525146
2022-09-14T10:02:50.141Z,69.622803
2022-09-14T10:03:58.849Z,68.994141
2022-09-14T10:05:07.556Z,67.901611
2022-09-14T10:06:17.294Z,67.30957
2022-09-14T10:07:25.977Z,68.237305
2022-09-14T10:08:35.664Z,67.938232
2022-09-14T10:09:44.407Z,67.541504
2022-09-14T10:10:53.113Z,68.237305
2022-09-14T10:12:02.897Z,68.334961
2022-09-14T10:13:11.577Z,68.499756
2022-09-14T10:14:21.289Z,68.103027
2022-09-14T10:15:30.960Z,67.901611
2022-09-14T10:16:39.654Z,67.901611
2022-09-14T10:17:49.379Z,67.803955
2022-09-14T10:18:58.064Z,67.376709
2022-09-14T10:20:07.810Z,66.455078
2022-09-14T10:21:17.467Z,66.418457
2022-09-14T10:22:26.728Z,66.485596
2022-09-14T10:23:34.887Z,65.100098
2022-09-14T10:24:44.565Z,64.971924
2022-09-14T10:25:54.288Z,64.776611
2022-09-14T10:27:03.988Z,65.368652
2022-09-14T10:28:12.683Z,65.002441
2022-09-14T10:29:21.432Z,65.332031
2022-09-14T10:30:31.125Z,65.924072
2022-09-14T10:31:39.819Z,66.223145
2022-09-14T10:32:49.525Z,65.991211
2022-09-14T10:33:59.248Z,66.192627
2022-09-14T10:35:06.968Z,65.466309
2022-09-14T10:36:16.699Z,65.06958
2022-09-14T10:37:26.370Z,65.301514
2022-09-14T10:38:35.107Z,66.387939
2022-09-14T10:39:44.889Z,65.795898
2022-09-14T10:40:54.569Z,65.203857
2022-09-14T10:42:04.270Z,65.72876
2022-09-14T10:43:12.963Z,66.455078
2022-09-14T10:44:20.727Z,66.650391
2022-09-14T10:45:30.414Z,67.474365
2022-09-14T10:46:39.197Z,67.773438
2022-09-14T10:47:47.800Z,67.96875
2022-09-14T10:48:56.469Z,67.675781
2022-09-14T10:50:05.144Z,68.07251
2022-09-14T10:51:14.847Z,68.267822
2022-09-14T10:52:22.559Z,67.63916
2022-09-14T10:53:32.217Z,67.773438
2022-09-14T10:54:41.904Z,67.63916
2022-09-14T10:55:51.632Z,67.175293
2022-09-14T10:57:01.346Z,66.882324
2022-09-14T10:58:12.945Z,67.504883
2022-09-14T10:59:18.724Z,67.901611
2022-09-14T11:00:28.408Z,68.597412
2022-09-14T11:01:36.194Z,68.499756
2022-09-14T11:02:43.829Z,67.803955
2022-09-14T11:03:53.675Z,68.597412
2022-09-14T11:05:03.310Z,68.4021
2022-09-14T11:06:13.004Z,68.29834
2022-09-14T11:07:21.663Z,68.29834
2022-09-14T11:08:30.387Z,67.96875
2022-09-14T11:09:40.110Z,67.736816
2022-09-14T11:10:48.853Z,67.346191
2022-09-14T11:11:57.538Z,67.114258
2022-09-14T11:13:07.233Z,67.08374
2022-09-14T11:14:17.279Z,65.863037
2022-09-14T11:15:26.350Z,65.533447
2022-09-14T11:16:36.044Z,64.050293
2022-09-14T11:17:44.723Z,64.776611
2022-09-14T11:18:54.411Z,64.477539
2022-09-14T11:20:03.106Z,65.234375
2022-09-14T11:21:11.803Z,65.429688
2022-09-14T11:22:21.512Z,65.332031
2022-09-14T11:23:30.191Z,65.594482
2022-09-14T11:24:38.894Z,64.080811
2022-09-14T11:25:48.666Z,64.178467
2022-09-14T11:26:57.466Z,64.874268
2022-09-14T11:28:07.816Z,64.178467
2022-09-14T11:29:16.503Z,64.477539
2022-09-14T11:30:25.194Z,63.952637
2022-09-14T11:31:34.973Z,63.330078
2022-09-14T11:32:44.569Z,63.330078
2022-09-14T11:33:53.310Z,62.60376
2022-09-14T11:35:01.992Z,62.280273
2022-09-14T11:36:10.660Z,61.846924
2022-09-14T11:37:20.364Z,62.243652
2022-09-14T11:38:29.065Z,63.15918
2022-09-14T11:39:36.768Z,63.751221
2022-09-14T11:40:46.499Z,62.994385
2022-09-14T11:41:55.150Z,63.885498
2022-09-14T11:43:03.824Z,63.684082
2022-09-14T11:44:11.676Z,62.93335
2022-09-14T11:45:20.350Z,62.139893
2022-09-14T11:46:30.058Z,61.71875
2022-09-14T11:47:38.729Z,62.310791
2022-09-14T11:48:46.499Z,61.517334
2022-09-14T11:49:56.155Z,61.322021
2022-09-14T11:51:04.848Z,61.71875
2022-09-14T11:52:13.526Z,61.816406
2022-09-14T11:53:21.190Z,61.94458
2022-09-14T11:54:29.875Z,61.322021
2022-09-14T11:55:39.581Z,61.883545
2022-09-14T11:56:48.370Z,60.699463
2022-09-14T11:57:55.942Z,61.49292
2022-09-14T11:59:05.650Z,61.291504
2022-09-14T12:00:14.366Z,60.870361
2022-09-14T12:01:24.063Z,61.193848
2022-09-14T12:02:33.868Z,61.16333
2022-09-14T12:03:42.531Z,60.772705
2022-09-14T12:04:52.151Z,60.839844
2022-09-14T12:06:00.838Z,60.9375
2022-09-14T12:07:08.635Z,60.614014
2022-09-14T12:08:18.340Z,60.089111
2022-09-14T12:09:27.042Z,60.357666
2022-09-14T12:10:36.731Z,59.735107
2022-09-14T12:11:46.402Z,58.752441
2022-09-14T12:12:55.140Z,58.135986
2022-09-14T12:14:04.793Z,58.850098
2022-09-14T12:15:12.489Z,58.978271
2022-09-14T12:16:21.232Z,58.911133
2022-09-14T12:17:46.206Z,59.49707
2022-09-14T12:18:41.551Z,60.314941
2022-09-14T12:19:50.223Z,60.516357
2022-09-14T12:20:59.943Z,60.217285
2022-09-14T12:22:08.612Z,60.809326
2022-09-14T12:23:18.286Z,60.778809
2022-09-14T12:24:26.206Z,60.583496
2022-09-14T12:25:33.877Z,60.357666
2022-09-14T12:26:43.563Z,60.650635
2022-09-14T12:27:52.254Z,60.626221
2022-09-14T12:29:01.962Z,59.936523
2022-09-14T12:30:10.632Z,59.570312
2022-09-14T12:31:19.373Z,59.893799
2022-09-14T12:32:28.007Z,60.906982
2022-09-14T12:33:36.664Z,61.132812
2022-09-14T12:34:46.356Z,61.431885
2022-09-14T12:35:54.210Z,61.260986
2022-09-14T12:37:01.935Z,61.291504
2022-09-14T12:38:11.614Z,61.193848
2022-09-14T12:39:20.282Z,61.193848
2022-09-14T12:40:29.075Z,61.755371
2022-09-14T12:41:38.697Z,61.462402
2022-09-14T12:42:47.385Z,61.16333
2022-09-14T12:43:57.052Z,60.772705
2022-09-14T12:45:04.743Z,60.375977
2022-09-14T12:46:12.537Z,60.797119
2022-09-14T12:47:22.132Z,60.772705
2022-09-14T12:48:31.838Z,60.772705
2022-09-14T12:49:41.511Z,60.180664
2022-09-14T12:50:50.185Z,60.534668
2022-09-14T12:51:59.863Z,61.352539
2022-09-14T12:53:09.774Z,61.749268
2022-09-14T12:54:19.454Z,62.17041
2022-09-14T12:55:28.149Z,62.597656
2022-09-14T12:56:37.997Z,63.586426
2022-09-14T12:57:46.648Z,62.628174
2022-09-14T12:58:55.529Z,63.323975
2022-09-14T13:00:04.183Z,63.7146
2022-09-14T13:01:12.961Z,63.916016
2022-09-14T13:02:22.727Z,63.916016
2022-09-14T13:03:30.252Z,63.220215
2022-09-14T13:04:39.962Z,63.745117
2022-09-14T13:05:49.640Z,64.141846
2022-09-14T13:06:59.314Z,64.239502
2022-09-14T13:08:08.005Z,64.63623
2022-09-14T13:09:16.686Z,64.73999
2022-09-14T13:10:25.419Z,65.167236
2022-09-14T13:11:35.098Z,65.063477
2022-09-14T13:12:44.802Z,65.557861